Time;durP1;ratioP1;P1;durP2;ratioP2;P2;SDS_P1;SDS_P2;PMS_P1;PMS_P2;Temp;Humidity;BMP_temperature;BMP_pressure;BME280_temperature;BME280_humidity;BME280_pressure;Samples;Min_cycle;Max_cycle;Signal;HPM_P1;HPM_P2
2021/12/24 00:00:45;;;;;;;13.73;3.33;;;;;;;;;;4988291;28;20037;-58
2021/12/24 00:03:12;;;;;;;16.33;3.30;;;;;;;;;;4979957;28;20129;-59
2021/12/24 00:05:40;;;;;;;8.77;3.22;;;;;;;;;;4990764;28;20038;-60
2021/12/24 00:08:07;;;;;;;17.77;4.15;;;;;;;;;;4983308;28;20035;-58
2021/12/24 00:10:34;;;;;;;12.20;4.80;;;;;;;;;;4986332;28;20025;-61
2021/12/24 00:13:06;;;;;;;15.07;6.32;;;;;;;;;;4990286;28;20029;-58
2021/12/24 00:15:51;;;;;;;20.10;8.70;;;;;;;;;;4987403;28;20030;-59
2021/12/24 00:37:33;;;;;;;52.55;29.23;;;;;;;;;;5002628;28;20045;-61
2021/12/24 00:42:34;;;;;;;60.83;34.95;;;;;;;;;;5003154;28;20041;-63
2021/12/24 00:45:01;;;;;;;49.65;27.50;;;;;;;;;;4985933;28;20018;-65
2021/12/24 00:47:28;;;;;;;53.70;29.83;;;;;;;;;;4984823;28;20542;-63
2021/12/24 00:49:55;;;;;;;42.72;24.98;;;;;;;;;;4991064;28;20039;-59
2021/12/24 00:55:09;;;;;;;49.35;26.92;;;;;;;;;;5004027;28;20444;-60
2021/12/24 00:57:55;;;;;;;53.75;27.65;;;;;;;;;;4998060;28;20030;-59
2021/12/24 01:00:24;;;;;;;53.90;27.10;;;;;;;;;;5002781;28;20073;-61
2021/12/24 01:02:52;;;;;;;48.13;25.98;;;;;;;;;;4997370;28;20038;-59
2021/12/24 01:05:19;;;;;;;62.10;30.75;;;;;;;;;;5000185;28;20025;-61
2021/12/24 01:07:49;;;;;;;47.50;26.55;;;;;;;;;;5005452;28;20148;-60
2021/12/24 01:10:18;;;;;;;52.80;26.30;;;;;;;;;;4993001;28;20096;-61
2021/12/24 01:12:45;;;;;;;50.55;25.80;;;;;;;;;;5002502;28;20493;-59
2021/12/24 01:15:13;;;;;;;42.83;23.60;;;;;;;;;;5003028;28;20034;-61
2021/12/24 01:17:52;;;;;;;42.40;23.08;;;;;;;;;;5003215;28;20041;-59
2021/12/24 01:23:26;;;;;;;42.53;22.17;;;;;;;;;;4997927;28;20046;-60
2021/12/24 01:25:57;;;;;;;40.38;21.70;;;;;;;;;;4980376;28;20053;-60
2021/12/24 01:29:04;;;;;;;37.47;21.42;;;;;;;;;;4982128;28;20050;-60
2021/12/24 01:44:59;;;;;;;45.05;19.67;;;;;;;;;;5003960;28;20068;-60
2021/12/24 01:47:26;;;;;;;45.97;19.13;;;;;;;;;;5001798;28;20113;-60
2021/12/24 01:49:54;;;;;;;38.88;19.67;;;;;;;;;;5001672;28;20073;-60
2021/12/24 01:52:21;;;;;;;34.83;18.77;;;;;;;;;;5001338;28;20037;-60
2021/12/24 01:54:48;;;;;;;29.92;16.27;;;;;;;;;;4993790;28;20070;-59
2021/12/24 01:57:15;;;;;;;34.72;16.25;;;;;;;;;;4997577;28;20151;-60
2021/12/24 01:59:43;;;;;;;30.02;15.18;;;;;;;;;;5003708;28;20036;-61
2021/12/24 02:02:10;;;;;;;34.92;14.18;;;;;;;;;;5005305;28;20132;-60
2021/12/24 02:04:37;;;;;;;26.98;12.43;;;;;;;;;;5004201;28;20100;-59
2021/12/24 02:07:05;;;;;;;21.08;8.48;;;;;;;;;;5005327;28;20022;-60
2021/12/24 02:09:34;;;;;;;16.33;7.15;;;;;;;;;;5000419;28;20072;-60
2021/12/24 02:12:01;;;;;;;15.25;5.57;;;;;;;;;;4994232;28;20471;-61
2021/12/24 02:14:35;;;;;;;14.18;5.50;;;;;;;;;;4980604;28;20039;-61
2021/12/24 02:30:38;;;;;;;7.07;3.45;;;;;;;;;;4975451;28;20041;-62
2021/12/24 02:33:05;;;;;;;9.90;3.55;;;;;;;;;;4983622;28;20034;-60
2021/12/24 02:35:33;;;;;;;13.05;2.92;;;;;;;;;;4982171;28;20034;-61
2021/12/24 02:38:02;;;;;;;11.93;2.80;;;;;;;;;;4982040;28;20034;-61
2021/12/24 02:40:29;;;;;;;8.88;2.95;;;;;;;;;;4976540;28;20033;-60
2021/12/24 02:42:57;;;;;;;6.50;1.98;;;;;;;;;;4990503;28;20041;-61
2021/12/24 02:45:26;;;;;;;5.55;2.08;;;;;;;;;;4981017;28;20050;-61
2021/12/24 02:55:32;;;;;;;8.43;1.52;;;;;;;;;;4982168;28;20040;-60
2021/12/24 02:57:59;;;;;;;6.68;2.25;;;;;;;;;;5003844;28;20603;-60
2021/12/24 03:00:28;;;;;;;9.38;1.48;;;;;;;;;;5000201;28;20102;-60
2021/12/24 03:02:56;;;;;;;9.75;1.60;;;;;;;;;;5003097;28;20041;-60
2021/12/24 03:05:24;;;;;;;6.25;1.30;;;;;;;;;;4990501;28;20023;-61
2021/12/24 03:07:51;;;;;;;4.90;1.38;;;;;;;;;;4989873;28;20556;-59
2021/12/24 03:10:19;;;;;;;4.78;1.00;;;;;;;;;;4986246;28;20025;-59
2021/12/24 03:12:47;;;;;;;5.30;1.30;;;;;;;;;;4988301;28;20081;-60
2021/12/24 03:15:16;;;;;;;4.05;1.00;;;;;;;;;;4990409;28;20027;-59
2021/12/24 03:17:49;;;;;;;6.15;1.10;;;;;;;;;;4997433;28;20038;-60
2021/12/24 03:20:16;;;;;;;7.68;1.13;;;;;;;;;;4990446;28;20501;-59
2021/12/24 03:25:28;;;;;;;10.57;1.95;;;;;;;;;;4988738;28;20040;-59
2021/12/24 03:27:55;;;;;;;5.22;1.63;;;;;;;;;;4988576;28;20061;-59
2021/12/24 03:30:22;;;;;;;6.72;2.78;;;;;;;;;;4990010;28;20015;-59
2021/12/24 03:32:49;;;;;;;3.45;1.40;;;;;;;;;;4989187;28;20032;-58
2021/12/24 03:35:16;;;;;;;6.38;1.98;;;;;;;;;;4991678;28;20033;-59
2021/12/24 03:37:43;;;;;;;5.18;1.73;;;;;;;;;;4991129;28;20109;-60
2021/12/24 03:40:10;;;;;;;8.35;2.08;;;;;;;;;;4989833;28;20026;-59
2021/12/24 03:42:41;;;;;;;5.63;1.65;;;;;;;;;;4989439;28;20149;-59
2021/12/24 03:45:28;;;;;;;7.70;1.80;;;;;;;;;;4990798;28;20462;-59
2021/12/24 03:48:00;;;;;;;3.50;1.73;;;;;;;;;;4991795;28;20030;-59
2021/12/24 03:50:43;;;;;;;6.18;2.10;;;;;;;;;;4991774;28;20109;-60
2021/12/24 03:55:54;;;;;;;12.13;1.73;;;;;;;;;;4991614;28;19996;-59
2021/12/24 03:58:21;;;;;;;7.05;2.38;;;;;;;;;;4989206;28;20034;-60
2021/12/24 04:00:48;;;;;;;2.95;1.60;;;;;;;;;;4991191;28;20030;-58
2021/12/24 04:03:16;;;;;;;4.90;1.70;;;;;;;;;;4991125;28;20042;-59
2021/12/24 04:05:43;;;;;;;3.17;1.45;;;;;;;;;;4990851;28;20029;-59
2021/12/24 04:08:10;;;;;;;6.15;1.65;;;;;;;;;;4991273;28;20030;-58
2021/12/24 04:10:40;;;;;;;4.45;1.70;;;;;;;;;;4990084;28;20033;-59
2021/12/24 04:13:11;;;;;;;4.35;1.42;;;;;;;;;;4989550;28;20509;-59
2021/12/24 04:15:38;;;;;;;4.70;1.77;;;;;;;;;;4989353;28;20029;-59
2021/12/24 04:18:17;;;;;;;5.00;1.85;;;;;;;;;;4992371;28;20058;-59
2021/12/24 04:26:15;;;;;;;5.55;1.98;;;;;;;;;;4994865;28;20041;-59
2021/12/24 04:28:42;;;;;;;6.88;1.98;;;;;;;;;;4993889;28;20522;-59
2021/12/24 04:31:09;;;;;;;4.35;2.42;;;;;;;;;;4994668;28;20018;-58
2021/12/24 04:33:39;;;;;;;3.83;1.83;;;;;;;;;;4994737;28;20082;-58
2021/12/24 04:36:23;;;;;;;3.67;2.15;;;;;;;;;;4994743;28;20856;-58
2021/12/24 04:39:11;;;;;;;5.03;1.80;;;;;;;;;;4994485;28;20036;-59
2021/12/24 05:03:35;;;;;;;6.32;2.53;;;;;;;;;;4994472;28;20599;-59
2021/12/24 05:06:12;;;;;;;9.57;2.42;;;;;;;;;;4994254;28;20037;-59
2021/12/24 05:08:50;;;;;;;5.18;2.47;;;;;;;;;;4993768;28;20026;-59
2021/12/24 05:11:18;;;;;;;7.68;2.10;;;;;;;;;;4994017;28;20081;-59
2021/12/24 05:13:45;;;;;;;5.43;2.22;;;;;;;;;;4993706;28;20481;-60
2021/12/24 05:21:34;;;;;;;7.03;2.38;;;;;;;;;;4993857;28;20442;-59
2021/12/24 05:24:02;;;;;;;10.55;2.47;;;;;;;;;;4993535;28;20030;-59
2021/12/24 05:26:29;;;;;;;4.20;2.40;;;;;;;;;;4993254;28;20030;-58
2021/12/24 05:28:59;;;;;;;6.80;2.30;;;;;;;;;;4991895;28;20117;-58
2021/12/24 05:31:26;;;;;;;4.88;2.35;;;;;;;;;;4993059;28;20038;-59
2021/12/24 05:33:53;;;;;;;6.60;2.95;;;;;;;;;;4993572;28;20076;-60
2021/12/24 05:36:20;;;;;;;8.50;2.83;;;;;;;;;;4992079;28;20022;-59
2021/12/24 05:38:47;;;;;;;7.43;2.80;;;;;;;;;;4993286;28;20022;-59
2021/12/24 05:41:15;;;;;;;4.70;2.22;;;;;;;;;;4993223;28;20468;-59
2021/12/24 05:43:42;;;;;;;4.57;2.22;;;;;;;;;;4993258;28;20041;-59
2021/12/24 05:46:09;;;;;;;4.78;1.85;;;;;;;;;;4993254;28;20037;-59
2021/12/24 05:48:36;;;;;;;4.57;1.92;;;;;;;;;;4993078;28;20026;-58
2021/12/24 05:51:03;;;;;;;7.43;2.30;;;;;;;;;;4993095;28;20033;-59
2021/12/24 05:53:30;;;;;;;16.92;3.25;;;;;;;;;;4993251;28;20022;-58
2021/12/24 05:55:58;;;;;;;7.05;2.20;;;;;;;;;;4992905;28;20037;-59
2021/12/24 05:58:25;;;;;;;6.57;1.85;;;;;;;;;;4992934;28;20421;-58
2021/12/24 06:00:52;;;;;;;5.43;2.30;;;;;;;;;;4992907;28;20089;-59
2021/12/24 06:03:19;;;;;;;3.85;1.77;;;;;;;;;;4991347;28;20066;-58
2021/12/24 06:05:47;;;;;;;4.72;1.88;;;;;;;;;;4992386;28;20479;-59
2021/12/24 06:08:14;;;;;;;6.95;1.73;;;;;;;;;;4992771;28;20030;-59
2021/12/24 06:10:42;;;;;;;5.88;1.83;;;;;;;;;;4992727;28;20018;-58
2021/12/24 06:13:09;;;;;;;4.57;2.00;;;;;;;;;;4991645;28;20100;-58
2021/12/24 06:15:46;;;;;;;8.18;2.08;;;;;;;;;;4992925;28;20080;-58
2021/12/24 06:18:26;;;;;;;4.95;1.88;;;;;;;;;;4992567;28;20114;-59
2021/12/24 06:20:54;;;;;;;3.85;1.70;;;;;;;;;;4992325;28;20026;-59
2021/12/24 06:23:23;;;;;;;5.55;1.88;;;;;;;;;;4991186;28;20038;-59
2021/12/24 06:25:51;;;;;;;7.18;2.22;;;;;;;;;;4992413;28;20026;-59
2021/12/24 06:28:18;;;;;;;7.40;2.10;;;;;;;;;;4992506;28;20053;-59
2021/12/24 06:30:46;;;;;;;6.03;1.90;;;;;;;;;;4991995;28;20081;-59
2021/12/24 06:33:13;;;;;;;4.18;1.85;;;;;;;;;;4992427;28;20045;-59
2021/12/24 06:35:40;;;;;;;6.47;2.00;;;;;;;;;;4992467;28;20022;-59
2021/12/24 06:38:07;;;;;;;7.18;2.10;;;;;;;;;;4992407;28;20035;-58
2021/12/24 06:40:35;;;;;;;3.17;1.25;;;;;;;;;;4991398;28;20026;-59
2021/12/24 06:43:02;;;;;;;2.97;1.20;;;;;;;;;;4992251;28;20084;-59
2021/12/24 06:45:29;;;;;;;2.40;0.90;;;;;;;;;;4992081;28;20034;-58
2021/12/24 06:47:57;;;;;;;4.78;1.60;;;;;;;;;;4991982;28;20030;-59
2021/12/24 06:50:24;;;;;;;33.78;1.58;;;;;;;;;;4991689;28;20463;-59
2021/12/24 06:52:52;;;;;;;3.40;1.00;;;;;;;;;;4991977;28;20461;-59
2021/12/24 06:55:19;;;;;;;11.48;1.65;;;;;;;;;;4992199;28;20120;-59
2021/12/24 06:57:46;;;;;;;9.85;1.55;;;;;;;;;;4992026;28;20030;-59
2021/12/24 07:00:16;;;;;;;5.72;1.02;;;;;;;;;;4991603;28;20104;-58
2021/12/24 07:02:43;;;;;;;5.80;0.88;;;;;;;;;;4991991;28;20037;-58
2021/12/24 07:05:10;;;;;;;4.75;0.70;;;;;;;;;;4990359;28;20509;-58
2021/12/24 07:07:37;;;;;;;6.15;1.42;;;;;;;;;;4990420;28;20441;-59
2021/12/24 07:10:05;;;;;;;6.30;1.10;;;;;;;;;;4992027;28;20502;-59
2021/12/24 07:12:32;;;;;;;4.10;0.77;;;;;;;;;;4991031;28;20042;-58
2021/12/24 07:14:59;;;;;;;4.93;1.70;;;;;;;;;;4991813;28;20538;-59
2021/12/24 07:17:28;;;;;;;2.55;0.85;;;;;;;;;;4992171;28;20034;-59
2021/12/24 07:19:55;;;;;;;3.95;0.80;;;;;;;;;;4991418;28;20096;-59
2021/12/24 07:22:22;;;;;;;3.58;0.93;;;;;;;;;;4991820;28;20679;-59
2021/12/24 07:24:49;;;;;;;2.83;0.98;;;;;;;;;;4991678;28;20026;-58
2021/12/24 07:27:16;;;;;;;12.27;2.78;;;;;;;;;;4991058;28;20141;-59
2021/12/24 07:29:43;;;;;;;8.40;1.45;;;;;;;;;;4991900;28;20097;-59
2021/12/24 07:32:10;;;;;;;7.63;1.50;;;;;;;;;;4991151;28;20031;-58
2021/12/24 07:34:37;;;;;;;19.38;1.75;;;;;;;;;;4991585;28;20030;-59
2021/12/24 07:37:04;;;;;;;3.53;1.10;;;;;;;;;;4991692;28;20038;-58
2021/12/24 07:39:31;;;;;;;6.78;1.15;;;;;;;;;;4991601;28;20022;-59
2021/12/24 07:41:58;;;;;;;8.18;1.63;;;;;;;;;;4990044;28;20463;-59
2021/12/24 07:44:27;;;;;;;9.30;1.10;;;;;;;;;;4991499;28;20018;-59
2021/12/24 07:46:58;;;;;;;3.38;1.20;;;;;;;;;;4991644;28;20030;-59
2021/12/24 07:52:12;;;;;;;4.97;1.00;;;;;;;;;;4993883;28;20030;-58
2021/12/24 07:54:40;;;;;;;12.43;1.17;;;;;;;;;;4995578;28;20035;-59
2021/12/24 07:57:08;;;;;;;10.63;2.25;;;;;;;;;;4995159;28;20061;-58
2021/12/24 07:59:37;;;;;;;5.22;0.90;;;;;;;;;;4995417;28;20025;-59
2021/12/24 08:02:07;;;;;;;8.07;1.20;;;;;;;;;;4994712;28;20551;-58
2021/12/24 08:04:34;;;;;;;6.38;1.30;;;;;;;;;;4995333;28;20034;-59
2021/12/24 08:07:01;;;;;;;15.00;1.73;;;;;;;;;;4995158;28;20026;-58
2021/12/24 08:09:29;;;;;;;14.75;2.80;;;;;;;;;;4995001;28;20156;-59
2021/12/24 08:11:56;;;;;;;9.65;1.48;;;;;;;;;;4994828;28;20026;-59
2021/12/24 08:14:23;;;;;;;12.85;2.40;;;;;;;;;;4995084;28;20022;-58
2021/12/24 08:16:50;;;;;;;8.43;1.35;;;;;;;;;;4995010;28;20023;-58
2021/12/24 08:19:18;;;;;;;10.95;1.52;;;;;;;;;;4995039;28;20045;-59
2021/12/24 08:21:46;;;;;;;4.60;1.13;;;;;;;;;;4994417;28;20109;-59
2021/12/24 08:24:13;;;;;;;6.63;1.05;;;;;;;;;;4994817;28;20116;-59
2021/12/24 08:26:41;;;;;;;6.72;1.05;;;;;;;;;;4994547;28;20027;-59
2021/12/24 08:29:08;;;;;;;10.63;1.40;;;;;;;;;;4993288;28;20033;-59
2021/12/24 08:31:35;;;;;;;8.40;1.55;;;;;;;;;;4994171;28;20433;-59
2021/12/24 08:34:03;;;;;;;5.70;1.23;;;;;;;;;;4994702;28;20069;-59
2021/12/24 08:36:30;;;;;;;6.20;1.33;;;;;;;;;;4994486;28;20025;-59
2021/12/24 08:38:57;;;;;;;12.35;1.83;;;;;;;;;;4994478;28;20042;-58
2021/12/24 08:41:25;;;;;;;11.35;2.00;;;;;;;;;;4994661;28;20030;-59
2021/12/24 08:43:53;;;;;;;7.20;1.60;;;;;;;;;;4993402;28;20026;-59
2021/12/24 08:46:22;;;;;;;15.80;3.05;;;;;;;;;;4994583;28;20046;-59
2021/12/24 08:48:49;;;;;;;11.82;2.58;;;;;;;;;;4994462;28;20453;-59
2021/12/24 08:51:16;;;;;;;7.05;1.63;;;;;;;;;;4994427;28;20052;-58
2021/12/24 08:53:43;;;;;;;9.02;1.65;;;;;;;;;;4993125;28;20038;-59
2021/12/24 08:56:10;;;;;;;9.32;1.52;;;;;;;;;;4987695;28;20031;-59
2021/12/24 08:58:38;;;;;;;10.98;1.63;;;;;;;;;;4993602;28;20022;-59
2021/12/24 09:01:05;;;;;;;4.90;1.40;;;;;;;;;;4993806;28;20045;-59
2021/12/24 09:03:33;;;;;;;7.75;1.77;;;;;;;;;;4993650;28;20502;-59
2021/12/24 09:06:00;;;;;;;5.47;1.40;;;;;;;;;;4992909;28;20117;-59
2021/12/24 09:08:27;;;;;;;6.53;1.25;;;;;;;;;;4993926;28;20502;-58
2021/12/24 09:10:54;;;;;;;10.60;1.90;;;;;;;;;;4992913;28;20031;-59
2021/12/24 09:13:21;;;;;;;11.82;1.55;;;;;;;;;;4993588;28;20022;-59
2021/12/24 09:15:48;;;;;;;11.50;1.40;;;;;;;;;;4994062;28;20026;-59
2021/12/24 09:18:15;;;;;;;3.60;1.42;;;;;;;;;;4993849;28;20022;-59
2021/12/24 09:20:44;;;;;;;10.32;1.50;;;;;;;;;;4994103;28;20053;-59
2021/12/24 09:23:12;;;;;;;6.38;1.17;;;;;;;;;;4993161;28;20038;-59
2021/12/24 09:25:40;;;;;;;17.77;1.90;;;;;;;;;;4993486;28;20026;-59
2021/12/24 09:28:07;;;;;;;10.55;1.88;;;;;;;;;;4990538;28;20054;-58
2021/12/24 09:30:35;;;;;;;30.33;4.70;;;;;;;;;;4990633;28;20031;-59
2021/12/24 09:33:03;;;;;;;30.75;5.22;;;;;;;;;;4993519;28;20471;-60
2021/12/24 09:35:30;;;;;;;14.48;2.05;;;;;;;;;;4992778;28;20038;-58
2021/12/24 09:37:58;;;;;;;7.72;2.05;;;;;;;;;;4991820;28;20039;-58
2021/12/24 09:40:25;;;;;;;8.45;2.00;;;;;;;;;;4991052;28;20077;-58
2021/12/24 09:42:52;;;;;;;19.10;2.47;;;;;;;;;;4989907;28;20038;-58
2021/12/24 09:45:20;;;;;;;14.57;3.05;;;;;;;;;;4993482;28;20030;-59
2021/12/24 09:47:47;;;;;;;9.38;1.90;;;;;;;;;;4993552;28;20482;-58
2021/12/24 09:50:17;;;;;;;9.95;2.10;;;;;;;;;;4993506;28;20026;-58
2021/12/24 09:52:45;;;;;;;11.95;2.40;;;;;;;;;;4992455;28;20486;-59
2021/12/24 09:55:17;;;;;;;13.98;2.20;;;;;;;;;;4993233;28;20022;-58
2021/12/24 09:57:44;;;;;;;30.42;6.20;;;;;;;;;;4992952;28;20449;-58
2021/12/24 10:00:16;;;;;;;11.90;2.58;;;;;;;;;;4993416;28;20061;-59
2021/12/24 10:02:46;;;;;;;21.70;4.10;;;;;;;;;;4992166;28;20038;-59
2021/12/24 10:05:42;;;;;;;18.63;2.75;;;;;;;;;;4992873;28;20031;-58
2021/12/24 10:08:11;;;;;;;15.35;2.33;;;;;;;;;;4988078;28;20053;-59
2021/12/24 10:10:43;;;;;;;33.95;4.10;;;;;;;;;;4992580;28;20474;-59
2021/12/24 10:13:29;;;;;;;5.72;2.10;;;;;;;;;;4992590;28;20382;-59
2021/12/24 10:16:00;;;;;;;13.38;2.22;;;;;;;;;;4992409;28;20456;-58
2021/12/24 10:18:38;;;;;;;9.40;2.23;;;;;;;;;;4993117;28;20030;-58
2021/12/24 10:21:05;;;;;;;14.35;2.65;;;;;;;;;;4992731;28;20084;-59
2021/12/24 10:24:00;;;;;;;14.73;2.92;;;;;;;;;;4991973;28;20031;-58
2021/12/24 10:26:33;;;;;;;8.98;1.73;;;;;;;;;;4991623;28;20467;-59
2021/12/24 10:29:00;;;;;;;11.63;2.08;;;;;;;;;;4992764;28;20041;-59
2021/12/24 10:31:28;;;;;;;7.90;1.70;;;;;;;;;;4990920;28;20092;-59
2021/12/24 10:34:15;;;;;;;4.53;1.30;;;;;;;;;;4992331;28;20098;-58
2021/12/24 10:36:52;;;;;;;37.72;7.00;;;;;;;;;;4992426;28;20034;-59
2021/12/24 10:39:20;;;;;;;5.32;1.40;;;;;;;;;;4992421;28;20041;-59
2021/12/24 10:41:48;;;;;;;7.22;1.38;;;;;;;;;;4991893;28;20069;-59
2021/12/24 10:44:17;;;;;;;7.10;2.08;;;;;;;;;;4991392;28;20026;-60
2021/12/24 10:47:02;;;;;;;5.10;1.50;;;;;;;;;;4992437;28;20153;-58
2021/12/24 10:54:54;;;;;;;10.25;2.20;;;;;;;;;;4992083;28;20116;-59
2021/12/24 10:57:25;;;;;;;10.55;2.08;;;;;;;;;;4991989;28;20033;-58
2021/12/24 10:59:56;;;;;;;15.10;3.70;;;;;;;;;;4992381;28;20096;-59
2021/12/24 11:02:28;;;;;;;9.63;1.80;;;;;;;;;;4990661;28;20082;-59
2021/12/24 11:04:55;;;;;;;10.55;2.22;;;;;;;;;;4991673;28;20102;-59
2021/12/24 11:07:31;;;;;;;10.57;2.63;;;;;;;;;;4992091;28;20024;-60
2021/12/24 11:10:11;;;;;;;13.77;2.53;;;;;;;;;;4992244;28;20110;-58
2021/12/24 11:12:40;;;;;;;16.65;2.80;;;;;;;;;;4991745;28;20101;-59
2021/12/24 11:15:27;;;;;;;13.20;3.35;;;;;;;;;;4991647;28;20026;-59
2021/12/24 11:17:55;;;;;;;69.28;9.77;;;;;;;;;;4991734;28;20035;-59
2021/12/24 11:20:22;;;;;;;12.93;2.67;;;;;;;;;;4991793;28;20026;-59
2021/12/24 11:22:57;;;;;;;12.23;2.58;;;;;;;;;;4991748;28;20394;-58
2021/12/24 11:25:25;;;;;;;6.20;1.30;;;;;;;;;;4992219;28;20049;-59
2021/12/24 11:27:52;;;;;;;15.23;2.35;;;;;;;;;;4998179;28;20050;-59
2021/12/24 11:30:21;;;;;;;29.90;4.80;;;;;;;;;;4996490;28;20470;-59
2021/12/24 11:32:48;;;;;;;15.20;2.22;;;;;;;;;;4998091;28;20028;-59
2021/12/24 11:35:16;;;;;;;14.98;2.15;;;;;;;;;;4998252;28;20052;-59
2021/12/24 11:37:44;;;;;;;13.82;2.15;;;;;;;;;;4998298;28;20022;-60
2021/12/24 11:40:13;;;;;;;4.63;1.38;;;;;;;;;;4997873;28;20026;-59
2021/12/24 11:42:47;;;;;;;76.57;10.45;;;;;;;;;;4998051;28;20046;-59
2021/12/24 11:45:14;;;;;;;16.75;2.63;;;;;;;;;;4996903;28;20098;-58
2021/12/24 11:47:41;;;;;;;10.95;2.63;;;;;;;;;;4998209;28;20054;-59
2021/12/24 11:50:09;;;;;;;19.50;2.45;;;;;;;;;;4998276;28;20022;-59
2021/12/24 11:52:36;;;;;;;6.53;1.30;;;;;;;;;;4997964;28;20474;-58
2021/12/24 11:55:03;;;;;;;6.70;1.83;;;;;;;;;;4997278;28;20030;-59
2021/12/24 11:57:30;;;;;;;7.30;1.92;;;;;;;;;;4997600;28;20062;-58
2021/12/24 11:59:57;;;;;;;6.63;1.38;;;;;;;;;;4997947;28;20058;-58
2021/12/24 12:02:37;;;;;;;7.90;1.58;;;;;;;;;;4997990;28;20034;-59
2021/12/24 12:05:25;;;;;;;24.10;2.30;;;;;;;;;;4997283;28;20034;-59
2021/12/24 12:07:52;;;;;;;13.32;2.00;;;;;;;;;;4997462;28;20030;-58
2021/12/24 12:10:42;;;;;;;139.30;17.10;;;;;;;;;;4998144;28;20045;-58
2021/12/24 12:13:29;;;;;;;10.98;1.92;;;;;;;;;;4992641;28;20042;-58
2021/12/24 12:15:59;;;;;;;5.75;1.30;;;;;;;;;;4996681;28;20405;-58
2021/12/24 12:18:43;;;;;;;8.00;1.88;;;;;;;;;;4997373;28;20045;-58
2021/12/24 12:21:15;;;;;;;19.45;2.00;;;;;;;;;;4996537;28;20045;-58
2021/12/24 12:23:50;;;;;;;9.30;1.38;;;;;;;;;;4993394;28;20503;-61
2021/12/24 12:26:56;;;;;;;13.30;1.50;;;;;;;;;;4996529;28;20026;-58
2021/12/24 12:29:23;;;;;;;14.85;3.40;;;;;;;;;;4920792;29;20043;-58
2021/12/24 12:31:57;;;;;;;18.83;2.88;;;;;;;;;;4936608;29;20027;-58
2021/12/24 12:34:39;;;;;;;18.20;2.30;;;;;;;;;;4947368;28;20443;-58
2021/12/24 12:37:25;;;;;;;47.33;5.18;;;;;;;;;;4956450;28;20025;-58
2021/12/24 12:40:27;;;;;;;33.53;4.70;;;;;;;;;;4955234;29;20062;-58
2021/12/24 12:43:02;;;;;;;15.40;2.83;;;;;;;;;;4933439;29;20040;-58
2021/12/24 12:45:36;;;;;;;16.95;3.22;;;;;;;;;;4951059;28;20047;-58
2021/12/24 12:48:05;;;;;;;27.52;3.58;;;;;;;;;;4954124;28;20031;-59
2021/12/24 12:50:32;;;;;;;19.35;5.55;;;;;;;;;;4955406;28;20026;-59
2021/12/24 12:53:18;;;;;;;40.58;6.97;;;;;;;;;;4954976;28;20031;-58
2021/12/24 12:55:45;;;;;;;12.00;2.80;;;;;;;;;;4954000;28;20054;-56
2021/12/24 12:58:25;;;;;;;24.17;4.35;;;;;;;;;;4943044;28;20454;-63
2021/12/24 13:01:04;;;;;;;29.10;4.13;;;;;;;;;;4948998;28;20110;-60
2021/12/24 13:03:32;;;;;;;109.63;5.22;;;;;;;;;;4952346;28;20487;-45
2021/12/24 13:06:04;;;;;;;37.80;4.45;;;;;;;;;;4952196;28;20041;-50
2021/12/24 13:08:36;;;;;;;52.85;5.60;;;;;;;;;;4954022;28;20110;-47
2021/12/24 13:11:15;;;;;;;50.58;5.38;;;;;;;;;;4953472;28;20118;-47
2021/12/24 13:13:54;;;;;;;118.82;12.05;;;;;;;;;;4952379;29;20038;-57
2021/12/24 13:16:48;;;;;;;22.08;2.85;;;;;;;;;;4954651;28;20023;-57
2021/12/24 13:24:19;;;;;;;66.05;5.13;;;;;;;;;;4951718;28;20110;-52
2021/12/24 13:26:49;;;;;;;33.42;3.58;;;;;;;;;;4958142;28;20050;-49
2021/12/24 13:29:17;;;;;;;14.52;3.97;;;;;;;;;;4990998;28;20033;-49
2021/12/24 13:31:54;;;;;;;32.65;4.32;;;;;;;;;;4991210;28;20049;-50
2021/12/24 13:34:22;;;;;;;29.80;3.60;;;;;;;;;;4989629;28;20497;-55
2021/12/24 13:36:49;;;;;;;34.63;5.22;;;;;;;;;;4992295;28;20054;-44
2021/12/24 13:39:18;;;;;;;27.95;4.70;;;;;;;;;;4993334;28;20026;-47
2021/12/24 13:41:46;;;;;;;19.98;3.53;;;;;;;;;;4986441;28;20038;-47
2021/12/24 13:44:28;;;;;;;34.50;4.75;;;;;;;;;;5005154;28;20027;-51
2021/12/24 13:47:00;;;;;;;36.58;4.75;;;;;;;;;;4991884;28;20054;-54
2021/12/24 13:50:11;;;;;;;24.65;4.57;;;;;;;;;;4992749;28;20026;-51
2021/12/24 13:55:18;;;;;;;16.23;3.03;;;;;;;;;;4993096;28;20106;-51
2021/12/24 13:58:06;;;;;;;31.80;4.57;;;;;;;;;;4993320;28;20157;-52
2021/12/24 14:00:34;;;;;;;66.95;6.50;;;;;;;;;;4993463;28;20094;-43
2021/12/24 14:03:02;;;;;;;32.55;5.15;;;;;;;;;;4991720;28;20054;-53
2021/12/24 14:05:29;;;;;;;26.10;4.38;;;;;;;;;;4992469;28;20490;-54
2021/12/24 14:08:05;;;;;;;29.80;4.70;;;;;;;;;;4992652;28;20034;-55
2021/12/24 14:10:33;;;;;;;28.75;4.47;;;;;;;;;;4993112;28;20054;-53
2021/12/24 14:13:49;;;;;;;170.00;17.77;;;;;;;;;;4990856;28;20056;-54
2021/12/24 14:16:01;;;;;;;80.55;9.10;;;;;;;;;;4980849;28;20169;-55
2021/12/24 14:18:42;;;;;;;45.73;7.47;;;;;;;;;;4992887;28;20022;-54
2021/12/24 14:24:12;;;;;;;52.97;7.88;;;;;;;;;;4990183;28;20391;-51
2021/12/24 14:26:57;;;;;;;42.70;6.97;;;;;;;;;;4990525;28;20066;-51
2021/12/24 14:29:30;;;;;;;48.88;7.05;;;;;;;;;;4990334;28;20515;-55
2021/12/24 14:31:59;;;;;;;47.00;6.35;;;;;;;;;;4988774;28;20421;-50
2021/12/24 14:34:33;;;;;;;42.33;6.80;;;;;;;;;;4991823;28;20026;-56
2021/12/24 14:37:01;;;;;;;61.10;7.10;;;;;;;;;;5000859;28;20031;-46
2021/12/24 14:39:45;;;;;;;43.75;7.43;;;;;;;;;;4972740;28;20065;-56
2021/12/24 14:42:31;;;;;;;39.28;6.05;;;;;;;;;;4980251;28;20438;-46
2021/12/24 14:45:18;;;;;;;49.47;6.60;;;;;;;;;;4991985;28;20022;-57
2021/12/24 14:47:57;;;;;;;45.95;5.40;;;;;;;;;;4990357;28;20818;-52
2021/12/24 14:50:24;;;;;;;44.58;6.88;;;;;;;;;;4982117;28;20542;-52
2021/12/24 14:53:07;;;;;;;45.85;5.80;;;;;;;;;;4983763;28;20038;-55
2021/12/24 14:55:44;;;;;;;33.95;6.25;;;;;;;;;;4989904;28;20031;-50
2021/12/24 14:58:11;;;;;;;38.30;6.93;;;;;;;;;;5001888;28;20022;-56
2021/12/24 15:00:40;;;;;;;31.05;5.35;;;;;;;;;;4982313;28;20027;-54
2021/12/24 15:03:10;;;;;;;49.38;6.38;;;;;;;;;;5007414;28;20075;-54
2021/12/24 15:05:39;;;;;;;32.45;5.97;;;;;;;;;;5001694;28;20034;-52
2021/12/24 15:08:14;;;;;;;40.08;6.32;;;;;;;;;;5000371;28;20034;-44
2021/12/24 15:10:54;;;;;;;30.65;6.05;;;;;;;;;;5001031;28;20026;-48
2021/12/24 15:13:22;;;;;;;37.38;6.35;;;;;;;;;;5000530;28;20022;-56
2021/12/24 15:15:52;;;;;;;44.53;6.47;;;;;;;;;;4998906;28;20041;-49
2021/12/24 15:18:19;;;;;;;31.45;5.45;;;;;;;;;;5006077;28;20076;-52
2021/12/24 15:20:47;;;;;;;44.75;6.20;;;;;;;;;;5001800;28;20088;-57
2021/12/24 15:23:17;;;;;;;42.97;6.32;;;;;;;;;;5000092;28;20045;-54
2021/12/24 15:25:46;;;;;;;34.88;5.32;;;;;;;;;;5000109;28;20018;-56
2021/12/24 15:28:18;;;;;;;37.95;5.95;;;;;;;;;;4995976;28;20052;-45
2021/12/24 15:30:45;;;;;;;43.47;6.38;;;;;;;;;;4979157;28;20018;-49
2021/12/24 15:33:13;;;;;;;33.42;5.97;;;;;;;;;;4994984;28;20041;-45
2021/12/24 15:35:40;;;;;;;75.95;7.97;;;;;;;;;;4998156;28;20480;-45
2021/12/24 15:38:08;;;;;;;56.05;7.78;;;;;;;;;;4993426;28;20037;-45
2021/12/24 15:40:35;;;;;;;46.85;7.47;;;;;;;;;;4994726;28;20029;-42
2021/12/24 15:43:03;;;;;;;41.58;6.55;;;;;;;;;;4994373;28;20040;-48
2021/12/24 15:45:35;;;;;;;32.33;6.15;;;;;;;;;;4997108;28;20037;-54
2021/12/24 15:48:04;;;;;;;22.35;5.50;;;;;;;;;;5002388;28;20104;-52
2021/12/24 15:50:32;;;;;;;22.80;4.20;;;;;;;;;;4963530;28;20120;-48
2021/12/24 15:53:00;;;;;;;23.08;4.25;;;;;;;;;;5003378;28;20033;-49
2021/12/24 15:55:28;;;;;;;35.92;4.88;;;;;;;;;;4984181;28;20057;-51
2021/12/24 15:57:55;;;;;;;51.00;7.97;;;;;;;;;;4991214;28;20033;-48
2021/12/24 16:00:25;;;;;;;48.25;6.45;;;;;;;;;;5003665;28;20026;-48
2021/12/24 16:02:53;;;;;;;35.35;5.30;;;;;;;;;;4993554;28;20038;-49
2021/12/24 16:05:20;;;;;;;29.73;5.70;;;;;;;;;;4994967;28;20489;-55
2021/12/24 16:07:48;;;;;;;32.67;4.82;;;;;;;;;;4997306;28;20034;-48
2021/12/24 16:10:15;;;;;;;25.75;4.72;;;;;;;;;;4998261;28;20026;-45
2021/12/24 16:12:43;;;;;;;33.08;5.57;;;;;;;;;;5000767;28;20034;-48
2021/12/24 16:15:12;;;;;;;49.67;5.68;;;;;;;;;;5006233;28;20030;-52
2021/12/24 16:17:39;;;;;;;35.17;5.35;;;;;;;;;;5011588;28;20025;-46
2021/12/24 16:20:07;;;;;;;30.30;5.05;;;;;;;;;;5004243;28;20021;-57
2021/12/24 16:22:34;;;;;;;35.88;5.55;;;;;;;;;;5004111;28;20037;-45
2021/12/24 16:25:01;;;;;;;28.27;5.18;;;;;;;;;;5005492;28;20044;-49
2021/12/24 16:27:28;;;;;;;32.35;6.05;;;;;;;;;;5006478;28;20050;-51
2021/12/24 16:29:55;;;;;;;27.95;5.00;;;;;;;;;;5001959;28;20052;-46
2021/12/24 16:32:29;;;;;;;36.35;5.63;;;;;;;;;;5009547;28;20029;-49
2021/12/24 16:34:59;;;;;;;28.05;5.38;;;;;;;;;;5004163;28;20018;-49
2021/12/24 16:37:31;;;;;;;36.58;6.55;;;;;;;;;;4988320;28;20022;-45
2021/12/24 16:39:58;;;;;;;25.13;5.60;;;;;;;;;;4998618;28;20037;-53
2021/12/24 16:42:26;;;;;;;26.80;5.70;;;;;;;;;;4982862;28;20494;-51
2021/12/24 16:44:53;;;;;;;22.00;5.65;;;;;;;;;;4982637;28;20038;-50
2021/12/24 16:47:24;;;;;;;24.90;5.07;;;;;;;;;;4980584;28;20027;-51
2021/12/24 16:49:51;;;;;;;29.40;4.25;;;;;;;;;;4982008;28;20053;-48
2021/12/24 16:52:19;;;;;;;21.60;4.32;;;;;;;;;;4983710;28;20018;-46